sensor_id;sensor_type;location;lat;lon;timestamp;P1;durP1;ratioP1;P2;durP2;ratioP2
26620;SDS011;14253;44.840;10.444;2023-05-23T00:02:08;19.80;;;12.75;;
26620;SDS011;14253;44.840;10.444;2023-05-23T00:04:34;18.15;;;12.90;;
26620;SDS011;14253;44.840;10.444;2023-05-23T00:07:03;15.55;;;12.32;;
26620;SDS011;14253;44.840;10.444;2023-05-23T00:09:29;13.85;;;11.93;;
26620;SDS011;14253;44.840;10.444;2023-05-23T00:11:55;14.52;;;12.98;;
26620;SDS011;14253;44.840;10.444;2023-05-23T00:14:21;20.17;;;13.05;;
26620;SDS011;14253;44.840;10.444;2023-05-23T00:16:47;19.05;;;15.40;;
26620;SDS011;14253;44.840;10.444;2023-05-23T00:19:14;17.15;;;13.57;;
26620;SDS011;14253;44.840;10.444;2023-05-23T00:21:44;19.95;;;13.13;;
26620;SDS011;14253;44.840;10.444;2023-05-23T00:24:15;15.48;;;12.85;;
26620;SDS011;14253;44.840;10.444;2023-05-23T00:26:43;19.33;;;14.60;;
26620;SDS011;14253;44.840;10.444;2023-05-23T00:29:10;18.77;;;14.07;;
26620;SDS011;14253;44.840;10.444;2023-05-23T00:31:41;20.30;;;13.73;;
26620;SDS011;14253;44.840;10.444;2023-05-23T00:34:11;22.48;;;14.90;;
26620;SDS011;14253;44.840;10.444;2023-05-23T00:36:42;17.52;;;13.80;;
26620;SDS011;14253;44.840;10.444;2023-05-23T00:39:12;18.73;;;14.82;;
26620;SDS011;14253;44.840;10.444;2023-05-23T00:41:44;16.67;;;14.35;;
26620;SDS011;14253;44.840;10.444;2023-05-23T00:44:11;21.65;;;14.43;;
26620;SDS011;14253;44.840;10.444;2023-05-23T00:46:37;20.83;;;15.73;;
26620;SDS011;14253;44.840;10.444;2023-05-23T00:49:03;19.70;;;15.02;;
26620;SDS011;14253;44.840;10.444;2023-05-23T00:51:29;18.30;;;14.23;;
26620;SDS011;14253;44.840;10.444;2023-05-23T00:53:56;20.40;;;14.40;;
26620;SDS011;14253;44.840;10.444;2023-05-23T00:56:25;22.65;;;15.93;;
26620;SDS011;14253;44.840;10.444;2023-05-23T00:58:52;19.73;;;15.88;;
26620;SDS011;14253;44.840;10.444;2023-05-23T01:01:19;17.30;;;14.40;;
26620;SDS011;14253;44.840;10.444;2023-05-23T01:03:45;19.70;;;14.70;;
26620;SDS011;14253;44.840;10.444;2023-05-23T01:06:13;16.08;;;12.70;;
26620;SDS011;14253;44.840;10.444;2023-05-23T01:08:39;17.60;;;14.18;;
26620;SDS011;14253;44.840;10.444;2023-05-23T01:11:11;17.83;;;14.52;;
26620;SDS011;14253;44.840;10.444;2023-05-23T01:13:55;19.58;;;15.45;;
26620;SDS011;14253;44.840;10.444;2023-05-23T01:17:14;19.85;;;15.13;;
26620;SDS011;14253;44.840;10.444;2023-05-23T01:19:35;27.08;;;17.30;;
26620;SDS011;14253;44.840;10.444;2023-05-23T01:22:44;19.17;;;15.70;;
26620;SDS011;14253;44.840;10.444;2023-05-23T01:27:54;20.77;;;15.52;;
26620;SDS011;14253;44.840;10.444;2023-05-23T01:30:23;19.75;;;16.52;;
26620;SDS011;14253;44.840;10.444;2023-05-23T01:32:52;20.15;;;16.73;;
26620;SDS011;14253;44.840;10.444;2023-05-23T01:35:24;24.17;;;18.55;;
26620;SDS011;14253;44.840;10.444;2023-05-23T01:37:53;20.60;;;16.67;;
26620;SDS011;14253;44.840;10.444;2023-05-23T01:40:20;24.45;;;17.55;;
26620;SDS011;14253;44.840;10.444;2023-05-23T01:42:46;22.55;;;15.60;;
26620;SDS011;14253;44.840;10.444;2023-05-23T01:45:13;20.52;;;17.58;;
26620;SDS011;14253;44.840;10.444;2023-05-23T01:47:40;22.75;;;16.27;;
26620;SDS011;14253;44.840;10.444;2023-05-23T01:50:07;20.73;;;16.23;;
26620;SDS011;14253;44.840;10.444;2023-05-23T01:52:35;23.77;;;16.52;;
26620;SDS011;14253;44.840;10.444;2023-05-23T01:55:03;23.45;;;17.05;;
26620;SDS011;14253;44.840;10.444;2023-05-23T01:57:34;21.10;;;16.55;;
26620;SDS011;14253;44.840;10.444;2023-05-23T02:00:05;25.08;;;18.75;;
26620;SDS011;14253;44.840;10.444;2023-05-23T02:02:38;20.75;;;17.98;;
26620;SDS011;14253;44.840;10.444;2023-05-23T02:05:05;22.85;;;17.23;;
26620;SDS011;14253;44.840;10.444;2023-05-23T02:07:31;23.02;;;17.10;;
26620;SDS011;14253;44.840;10.444;2023-05-23T02:09:57;21.20;;;16.95;;
26620;SDS011;14253;44.840;10.444;2023-05-23T02:12:23;20.65;;;15.73;;
26620;SDS011;14253;44.840;10.444;2023-05-23T02:14:49;21.38;;;15.50;;
26620;SDS011;14253;44.840;10.444;2023-05-23T02:17:18;22.75;;;15.75;;
26620;SDS011;14253;44.840;10.444;2023-05-23T02:19:46;20.13;;;16.05;;
26620;SDS011;14253;44.840;10.444;2023-05-23T02:22:13;18.13;;;14.57;;
26620;SDS011;14253;44.840;10.444;2023-05-23T02:24:39;19.92;;;14.07;;
26620;SDS011;14253;44.840;10.444;2023-05-23T02:27:05;17.80;;;13.85;;
26620;SDS011;14253;44.840;10.444;2023-05-23T02:29:31;17.60;;;14.60;;
26620;SDS011;14253;44.840;10.444;2023-05-23T02:31:57;16.73;;;14.32;;
26620;SDS011;14253;44.840;10.444;2023-05-23T02:34:24;19.10;;;14.18;;
26620;SDS011;14253;44.840;10.444;2023-05-23T02:36:50;17.42;;;14.02;;
26620;SDS011;14253;44.840;10.444;2023-05-23T02:39:16;17.08;;;13.60;;
26620;SDS011;14253;44.840;10.444;2023-05-23T02:41:44;22.40;;;14.60;;
26620;SDS011;14253;44.840;10.444;2023-05-23T02:44:10;17.05;;;14.38;;
26620;SDS011;14253;44.840;10.444;2023-05-23T02:46:36;17.45;;;14.05;;
26620;SDS011;14253;44.840;10.444;2023-05-23T02:49:03;15.85;;;13.65;;
26620;SDS011;14253;44.840;10.444;2023-05-23T02:51:29;23.17;;;15.27;;
26620;SDS011;14253;44.840;10.444;2023-05-23T02:53:56;22.48;;;14.48;;
26620;SDS011;14253;44.840;10.444;2023-05-23T02:56:23;17.30;;;13.82;;
26620;SDS011;14253;44.840;10.444;2023-05-23T02:58:51;19.40;;;15.18;;
26620;SDS011;14253;44.840;10.444;2023-05-23T03:01:17;18.35;;;14.32;;
26620;SDS011;14253;44.840;10.444;2023-05-23T03:03:44;16.45;;;13.63;;
26620;SDS011;14253;44.840;10.444;2023-05-23T03:06:10;18.00;;;14.80;;
26620;SDS011;14253;44.840;10.444;2023-05-23T03:08:39;23.25;;;14.70;;
26620;SDS011;14253;44.840;10.444;2023-05-23T03:11:06;23.05;;;14.82;;
26620;SDS011;14253;44.840;10.444;2023-05-23T03:13:32;19.90;;;14.57;;
26620;SDS011;14253;44.840;10.444;2023-05-23T03:16:01;23.55;;;14.35;;
26620;SDS011;14253;44.840;10.444;2023-05-23T03:18:27;17.40;;;14.00;;
26620;SDS011;14253;44.840;10.444;2023-05-23T03:20:54;21.33;;;14.90;;
26620;SDS011;14253;44.840;10.444;2023-05-23T03:23:22;21.90;;;15.63;;
26620;SDS011;14253;44.840;10.444;2023-05-23T03:25:48;17.92;;;15.15;;
26620;SDS011;14253;44.840;10.444;2023-05-23T03:28:14;22.23;;;14.63;;
26620;SDS011;14253;44.840;10.444;2023-05-23T03:30:40;20.73;;;15.20;;
26620;SDS011;14253;44.840;10.444;2023-05-23T03:33:06;23.52;;;14.85;;
26620;SDS011;14253;44.840;10.444;2023-05-23T03:35:32;16.85;;;14.27;;
26620;SDS011;14253;44.840;10.444;2023-05-23T03:37:58;22.63;;;15.75;;
26620;SDS011;14253;44.840;10.444;2023-05-23T03:40:24;24.27;;;15.95;;
26620;SDS011;14253;44.840;10.444;2023-05-23T03:43:07;23.75;;;15.98;;
26620;SDS011;14253;44.840;10.444;2023-05-23T03:45:35;21.60;;;15.20;;
26620;SDS011;14253;44.840;10.444;2023-05-23T03:48:08;19.70;;;14.32;;
26620;SDS011;14253;44.840;10.444;2023-05-23T03:50:34;23.10;;;15.63;;
26620;SDS011;14253;44.840;10.444;2023-05-23T03:53:00;19.05;;;15.80;;
26620;SDS011;14253;44.840;10.444;2023-05-23T03:55:30;20.20;;;16.13;;
26620;SDS011;14253;44.840;10.444;2023-05-23T03:57:57;20.40;;;15.23;;
26620;SDS011;14253;44.840;10.444;2023-05-23T04:00:23;21.05;;;16.33;;
26620;SDS011;14253;44.840;10.444;2023-05-23T04:02:50;18.70;;;15.80;;
26620;SDS011;14253;44.840;10.444;2023-05-23T04:05:19;20.40;;;15.77;;
26620;SDS011;14253;44.840;10.444;2023-05-23T04:07:47;18.15;;;15.48;;
26620;SDS011;14253;44.840;10.444;2023-05-23T04:10:13;22.25;;;16.00;;
26620;SDS011;14253;44.840;10.444;2023-05-23T04:12:40;17.00;;;14.40;;
26620;SDS011;14253;44.840;10.444;2023-05-23T04:17:47;22.17;;;15.20;;
26620;SDS011;14253;44.840;10.444;2023-05-23T04:20:16;20.70;;;14.93;;
26620;SDS011;14253;44.840;10.444;2023-05-23T04:22:42;21.70;;;14.98;;
26620;SDS011;14253;44.840;10.444;2023-05-23T04:25:08;22.23;;;16.15;;
26620;SDS011;14253;44.840;10.444;2023-05-23T04:27:39;21.85;;;16.52;;
26620;SDS011;14253;44.840;10.444;2023-05-23T04:30:06;18.38;;;14.75;;
26620;SDS011;14253;44.840;10.444;2023-05-23T04:32:40;21.83;;;16.23;;
26620;SDS011;14253;44.840;10.444;2023-05-23T04:35:07;20.27;;;15.60;;
26620;SDS011;14253;44.840;10.444;2023-05-23T04:37:36;17.48;;;15.02;;
26620;SDS011;14253;44.840;10.444;2023-05-23T04:40:05;20.77;;;16.50;;
26620;SDS011;14253;44.840;10.444;2023-05-23T04:42:55;22.75;;;17.42;;
26620;SDS011;14253;44.840;10.444;2023-05-23T04:45:29;18.10;;;16.10;;
26620;SDS011;14253;44.840;10.444;2023-05-23T04:48:03;23.20;;;16.10;;
26620;SDS011;14253;44.840;10.444;2023-05-23T04:50:41;20.95;;;16.02;;
26620;SDS011;14253;44.840;10.444;2023-05-23T04:53:07;20.70;;;16.50;;
26620;SDS011;14253;44.840;10.444;2023-05-23T04:55:34;19.10;;;16.80;;
26620;SDS011;14253;44.840;10.444;2023-05-23T04:58:01;20.83;;;16.98;;
26620;SDS011;14253;44.840;10.444;2023-05-23T05:00:31;20.63;;;15.88;;
26620;SDS011;14253;44.840;10.444;2023-05-23T05:02:57;24.15;;;16.08;;
26620;SDS011;14253;44.840;10.444;2023-05-23T05:05:26;22.48;;;15.77;;
26620;SDS011;14253;44.840;10.444;2023-05-23T05:07:52;20.85;;;16.98;;
26620;SDS011;14253;44.840;10.444;2023-05-23T05:10:19;22.77;;;16.40;;
26620;SDS011;14253;44.840;10.444;2023-05-23T05:12:45;23.05;;;16.63;;
26620;SDS011;14253;44.840;10.444;2023-05-23T05:15:17;22.17;;;16.02;;
26620;SDS011;14253;44.840;10.444;2023-05-23T05:17:46;27.85;;;17.08;;
26620;SDS011;14253;44.840;10.444;2023-05-23T05:20:15;17.50;;;15.55;;
26620;SDS011;14253;44.840;10.444;2023-05-23T05:22:42;21.58;;;16.15;;
26620;SDS011;14253;44.840;10.444;2023-05-23T05:25:11;23.90;;;16.65;;
26620;SDS011;14253;44.840;10.444;2023-05-23T05:27:37;19.23;;;15.50;;
26620;SDS011;14253;44.840;10.444;2023-05-23T05:30:06;20.27;;;16.15;;
26620;SDS011;14253;44.840;10.444;2023-05-23T05:32:42;25.15;;;16.48;;
26620;SDS011;14253;44.840;10.444;2023-05-23T05:35:12;29.83;;;16.23;;
26620;SDS011;14253;44.840;10.444;2023-05-23T05:37:39;17.98;;;16.05;;
26620;SDS011;14253;44.840;10.444;2023-05-23T05:40:10;21.55;;;16.52;;
26620;SDS011;14253;44.840;10.444;2023-05-23T05:42:49;18.25;;;15.75;;
26620;SDS011;14253;44.840;10.444;2023-05-23T05:45:15;20.15;;;15.32;;
26620;SDS011;14253;44.840;10.444;2023-05-23T05:47:43;24.50;;;16.05;;
26620;SDS011;14253;44.840;10.444;2023-05-23T05:50:10;20.90;;;16.45;;
26620;SDS011;14253;44.840;10.444;2023-05-23T05:52:37;18.63;;;15.40;;
26620;SDS011;14253;44.840;10.444;2023-05-23T05:55:05;19.55;;;15.98;;
26620;SDS011;14253;44.840;10.444;2023-05-23T05:57:41;20.70;;;14.50;;
26620;SDS011;14253;44.840;10.444;2023-05-23T06:00:08;22.05;;;15.55;;
26620;SDS011;14253;44.840;10.444;2023-05-23T06:02:53;20.13;;;15.98;;
26620;SDS011;14253;44.840;10.444;2023-05-23T06:05:40;21.73;;;15.60;;
26620;SDS011;14253;44.840;10.444;2023-05-23T06:08:06;20.65;;;14.75;;
26620;SDS011;14253;44.840;10.444;2023-05-23T06:10:32;21.38;;;14.82;;
26620;SDS011;14253;44.840;10.444;2023-05-23T06:13:01;17.58;;;14.90;;
26620;SDS011;14253;44.840;10.444;2023-05-23T06:15:28;21.17;;;16.95;;
26620;SDS011;14253;44.840;10.444;2023-05-23T06:17:54;19.10;;;16.02;;
26620;SDS011;14253;44.840;10.444;2023-05-23T06:20:22;21.17;;;15.80;;
26620;SDS011;14253;44.840;10.444;2023-05-23T06:22:48;21.15;;;16.38;;
26620;SDS011;14253;44.840;10.444;2023-05-23T06:25:14;18.80;;;16.00;;
26620;SDS011;14253;44.840;10.444;2023-05-23T06:27:44;21.15;;;15.90;;
26620;SDS011;14253;44.840;10.444;2023-05-23T06:30:17;20.00;;;16.58;;
26620;SDS011;14253;44.840;10.444;2023-05-23T06:32:45;24.45;;;16.70;;
26620;SDS011;14253;44.840;10.444;2023-05-23T06:35:16;23.30;;;15.15;;
26620;SDS011;14253;44.840;10.444;2023-05-23T06:37:44;20.48;;;14.45;;
26620;SDS011;14253;44.840;10.444;2023-05-23T06:40:11;20.95;;;15.15;;
26620;SDS011;14253;44.840;10.444;2023-05-23T06:42:40;20.00;;;15.68;;
26620;SDS011;14253;44.840;10.444;2023-05-23T06:45:21;24.73;;;16.60;;
26620;SDS011;14253;44.840;10.444;2023-05-23T06:47:47;17.10;;;13.80;;
26620;SDS011;14253;44.840;10.444;2023-05-23T06:50:13;20.88;;;15.57;;
26620;SDS011;14253;44.840;10.444;2023-05-23T06:52:40;21.33;;;14.63;;
26620;SDS011;14253;44.840;10.444;2023-05-23T06:55:07;15.88;;;13.15;;
26620;SDS011;14253;44.840;10.444;2023-05-23T06:57:34;12.90;;;11.60;;
26620;SDS011;14253;44.840;10.444;2023-05-23T07:00:00;16.35;;;11.77;;
26620;SDS011;14253;44.840;10.444;2023-05-23T07:02:27;13.88;;;10.85;;
26620;SDS011;14253;44.840;10.444;2023-05-23T07:04:53;15.85;;;11.25;;
26620;SDS011;14253;44.840;10.444;2023-05-23T07:07:39;14.40;;;11.15;;
26620;SDS011;14253;44.840;10.444;2023-05-23T07:10:05;19.90;;;11.55;;
26620;SDS011;14253;44.840;10.444;2023-05-23T07:12:32;12.95;;;11.35;;
26620;SDS011;14253;44.840;10.444;2023-05-23T07:14:58;15.20;;;10.40;;
26620;SDS011;14253;44.840;10.444;2023-05-23T07:17:25;16.45;;;11.48;;
26620;SDS011;14253;44.840;10.444;2023-05-23T07:19:54;19.33;;;11.55;;
26620;SDS011;14253;44.840;10.444;2023-05-23T07:22:20;18.25;;;11.60;;
26620;SDS011;14253;44.840;10.444;2023-05-23T07:24:47;16.75;;;11.48;;
26620;SDS011;14253;44.840;10.444;2023-05-23T07:27:13;16.42;;;11.02;;
26620;SDS011;14253;44.840;10.444;2023-05-23T07:29:39;13.48;;;11.55;;
26620;SDS011;14253;44.840;10.444;2023-05-23T07:32:09;14.73;;;11.93;;
26620;SDS011;14253;44.840;10.444;2023-05-23T07:34:36;17.45;;;11.95;;
26620;SDS011;14253;44.840;10.444;2023-05-23T07:37:02;16.52;;;11.68;;
26620;SDS011;14253;44.840;10.444;2023-05-23T07:39:36;14.43;;;12.38;;
26620;SDS011;14253;44.840;10.444;2023-05-23T07:42:02;27.33;;;12.80;;
26620;SDS011;14253;44.840;10.444;2023-05-23T07:44:28;12.90;;;11.32;;
26620;SDS011;14253;44.840;10.444;2023-05-23T07:46:54;16.60;;;12.93;;
26620;SDS011;14253;44.840;10.444;2023-05-23T07:49:21;16.17;;;13.07;;
26620;SDS011;14253;44.840;10.444;2023-05-23T07:51:47;15.95;;;13.45;;
26620;SDS011;14253;44.840;10.444;2023-05-23T07:54:13;20.30;;;13.50;;
26620;SDS011;14253;44.840;10.444;2023-05-23T07:56:41;14.70;;;12.93;;
26620;SDS011;14253;44.840;10.444;2023-05-23T07:59:08;16.63;;;13.57;;
26620;SDS011;14253;44.840;10.444;2023-05-23T08:01:34;16.58;;;14.85;;
26620;SDS011;14253;44.840;10.444;2023-05-23T08:04:05;19.33;;;13.70;;
26620;SDS011;14253;44.840;10.444;2023-05-23T08:06:37;16.98;;;13.77;;
26620;SDS011;14253;44.840;10.444;2023-05-23T08:09:07;18.83;;;14.00;;
26620;SDS011;14253;44.840;10.444;2023-05-23T08:11:39;19.25;;;14.75;;
26620;SDS011;14253;44.840;10.444;2023-05-23T08:14:06;16.83;;;15.02;;
26620;SDS011;14253;44.840;10.444;2023-05-23T08:16:35;18.80;;;14.68;;
26620;SDS011;14253;44.840;10.444;2023-05-23T08:19:02;17.65;;;14.70;;
26620;SDS011;14253;44.840;10.444;2023-05-23T08:21:28;18.45;;;14.93;;
26620;SDS011;14253;44.840;10.444;2023-05-23T08:23:54;19.08;;;15.65;;
26620;SDS011;14253;44.840;10.444;2023-05-23T08:26:20;18.55;;;15.13;;
26620;SDS011;14253;44.840;10.444;2023-05-23T08:28:47;20.20;;;15.07;;
26620;SDS011;14253;44.840;10.444;2023-05-23T08:31:13;21.75;;;15.95;;
26620;SDS011;14253;44.840;10.444;2023-05-23T08:33:39;17.75;;;15.82;;
26620;SDS011;14253;44.840;10.444;2023-05-23T08:36:05;17.92;;;15.90;;
26620;SDS011;14253;44.840;10.444;2023-05-23T08:38:32;23.60;;;16.27;;
26620;SDS011;14253;44.840;10.444;2023-05-23T08:41:20;19.63;;;15.65;;
26620;SDS011;14253;44.840;10.444;2023-05-23T08:43:50;19.63;;;15.82;;
26620;SDS011;14253;44.840;10.444;2023-05-23T08:46:23;18.73;;;15.57;;
26620;SDS011;14253;44.840;10.444;2023-05-23T08:48:50;19.92;;;16.08;;
26620;SDS011;14253;44.840;10.444;2023-05-23T08:51:25;16.95;;;15.25;;
26620;SDS011;14253;44.840;10.444;2023-05-23T08:53:54;18.35;;;15.85;;
26620;SDS011;14253;44.840;10.444;2023-05-23T08:56:22;19.20;;;15.38;;
26620;SDS011;14253;44.840;10.444;2023-05-23T08:58:52;19.70;;;14.98;;
26620;SDS011;14253;44.840;10.444;2023-05-23T09:01:20;21.13;;;16.63;;
26620;SDS011;14253;44.840;10.444;2023-05-23T09:03:50;21.02;;;15.55;;
26620;SDS011;14253;44.840;10.444;2023-05-23T09:06:39;17.67;;;15.80;;
26620;SDS011;14253;44.840;10.444;2023-05-23T09:09:05;22.30;;;15.65;;
26620;SDS011;14253;44.840;10.444;2023-05-23T09:11:32;19.63;;;15.52;;
26620;SDS011;14253;44.840;10.444;2023-05-23T09:14:01;20.67;;;15.93;;
26620;SDS011;14253;44.840;10.444;2023-05-23T09:16:31;21.65;;;16.77;;
26620;SDS011;14253;44.840;10.444;2023-05-23T09:19:10;21.15;;;16.25;;
26620;SDS011;14253;44.840;10.444;2023-05-23T09:21:42;20.45;;;16.10;;
26620;SDS011;14253;44.840;10.444;2023-05-23T09:24:39;18.73;;;15.02;;
26620;SDS011;14253;44.840;10.444;2023-05-23T09:27:07;15.52;;;13.90;;
26620;SDS011;14253;44.840;10.444;2023-05-23T09:29:37;16.58;;;14.80;;
26620;SDS011;14253;44.840;10.444;2023-05-23T09:32:18;19.63;;;15.73;;
26620;SDS011;14253;44.840;10.444;2023-05-23T09:34:56;19.55;;;15.88;;
26620;SDS011;14253;44.840;10.444;2023-05-23T09:37:33;19.25;;;14.10;;
26620;SDS011;14253;44.840;10.444;2023-05-23T09:40:05;15.05;;;13.43;;
26620;SDS011;14253;44.840;10.444;2023-05-23T09:42:41;18.75;;;13.45;;
26620;SDS011;14253;44.840;10.444;2023-05-23T09:45:09;16.83;;;14.07;;
26620;SDS011;14253;44.840;10.444;2023-05-23T09:47:36;16.88;;;15.07;;
26620;SDS011;14253;44.840;10.444;2023-05-23T09:50:02;18.13;;;16.30;;
26620;SDS011;14253;44.840;10.444;2023-05-23T09:52:36;19.02;;;14.23;;
26620;SDS011;14253;44.840;10.444;2023-05-23T09:55:02;16.05;;;14.32;;
26620;SDS011;14253;44.840;10.444;2023-05-23T09:57:29;20.08;;;15.00;;
26620;SDS011;14253;44.840;10.444;2023-05-23T09:59:58;19.95;;;15.10;;
26620;SDS011;14253;44.840;10.444;2023-05-23T10:08:18;18.08;;;12.88;;
26620;SDS011;14253;44.840;10.444;2023-05-23T10:13:25;16.42;;;14.77;;
26620;SDS011;14253;44.840;10.444;2023-05-23T10:16:02;16.70;;;14.52;;
26620;SDS011;14253;44.840;10.444;2023-05-23T10:18:47;19.70;;;14.65;;
26620;SDS011;14253;44.840;10.444;2023-05-23T10:21:23;14.52;;;12.00;;
26620;SDS011;14253;44.840;10.444;2023-05-23T10:23:57;18.45;;;13.77;;
26620;SDS011;14253;44.840;10.444;2023-05-23T10:26:25;21.23;;;14.30;;
26620;SDS011;14253;44.840;10.444;2023-05-23T10:28:52;16.75;;;14.35;;
26620;SDS011;14253;44.840;10.444;2023-05-23T10:31:22;18.52;;;12.65;;
26620;SDS011;14253;44.840;10.444;2023-05-23T10:33:53;14.23;;;11.15;;
26620;SDS011;14253;44.840;10.444;2023-05-23T10:36:27;13.63;;;12.23;;
26620;SDS011;14253;44.840;10.444;2023-05-23T10:39:07;13.43;;;10.45;;
26620;SDS011;14253;44.840;10.444;2023-05-23T10:42:06;14.60;;;11.50;;
26620;SDS011;14253;44.840;10.444;2023-05-23T10:44:49;13.45;;;11.35;;
26620;SDS011;14253;44.840;10.444;2023-05-23T10:47:24;11.80;;;9.95;;
26620;SDS011;14253;44.840;10.444;2023-05-23T10:49:54;14.77;;;9.48;;
26620;SDS011;14253;44.840;10.444;2023-05-23T10:52:22;15.38;;;9.60;;
26620;SDS011;14253;44.840;10.444;2023-05-23T10:54:53;11.23;;;9.88;;
26620;SDS011;14253;44.840;10.444;2023-05-23T10:57:26;9.48;;;8.57;;
26620;SDS011;14253;44.840;10.444;2023-05-23T10:59:52;12.55;;;9.80;;
26620;SDS011;14253;44.840;10.444;2023-05-23T11:02:18;9.57;;;8.55;;
26620;SDS011;14253;44.840;10.444;2023-05-23T11:05:35;10.85;;;8.93;;
26620;SDS011;14253;44.840;10.444;2023-05-23T11:08:11;15.63;;;8.98;;
26620;SDS011;14253;44.840;10.444;2023-05-23T11:10:51;11.35;;;8.85;;
26620;SDS011;14253;44.840;10.444;2023-05-23T11:16:24;11.95;;;9.73;;
26620;SDS011;14253;44.840;10.444;2023-05-23T11:18:50;11.55;;;7.95;;
26620;SDS011;14253;44.840;10.444;2023-05-23T11:21:16;11.77;;;9.70;;
26620;SDS011;14253;44.840;10.444;2023-05-23T11:23:44;15.95;;;9.10;;
26620;SDS011;14253;44.840;10.444;2023-05-23T11:26:28;13.93;;;8.80;;
26620;SDS011;14253;44.840;10.444;2023-05-23T11:28:55;11.85;;;7.90;;
26620;SDS011;14253;44.840;10.444;2023-05-23T11:31:23;9.32;;;7.95;;
26620;SDS011;14253;44.840;10.444;2023-05-23T11:33:52;12.73;;;8.18;;
26620;SDS011;14253;44.840;10.444;2023-05-23T11:36:21;9.88;;;7.05;;
26620;SDS011;14253;44.840;10.444;2023-05-23T11:38:48;10.32;;;6.72;;
26620;SDS011;14253;44.840;10.444;2023-05-23T11:41:17;11.53;;;7.83;;
26620;SDS011;14253;44.840;10.444;2023-05-23T11:43:52;11.82;;;6.95;;
26620;SDS011;14253;44.840;10.444;2023-05-23T11:46:18;11.93;;;7.07;;
26620;SDS011;14253;44.840;10.444;2023-05-23T11:48:45;10.15;;;6.75;;
26620;SDS011;14253;44.840;10.444;2023-05-23T11:51:12;9.10;;;7.05;;
26620;SDS011;14253;44.840;10.444;2023-05-23T11:53:38;6.88;;;6.18;;
26620;SDS011;14253;44.840;10.444;2023-05-23T11:56:04;8.75;;;5.90;;
26620;SDS011;14253;44.840;10.444;2023-05-23T11:58:35;7.82;;;5.20;;
26620;SDS011;14253;44.840;10.444;2023-05-23T12:03:29;6.57;;;5.30;;
26620;SDS011;14253;44.840;10.444;2023-05-23T12:05:56;7.68;;;5.05;;
26620;SDS011;14253;44.840;10.444;2023-05-23T12:08:22;9.90;;;5.22;;
26620;SDS011;14253;44.840;10.444;2023-05-23T12:10:59;7.07;;;4.95;;
26620;SDS011;14253;44.840;10.444;2023-05-23T12:13:27;7.80;;;4.50;;
26620;SDS011;14253;44.840;10.444;2023-05-23T12:16:00;9.02;;;4.40;;
26620;SDS011;14253;44.840;10.444;2023-05-23T12:18:27;10.15;;;4.68;;
26620;SDS011;14253;44.840;10.444;2023-05-23T12:21:03;8.27;;;4.83;;
26620;SDS011;14253;44.840;10.444;2023-05-23T12:23:32;8.10;;;5.50;;
26620;SDS011;14253;44.840;10.444;2023-05-23T12:25:58;8.27;;;5.18;;
26620;SDS011;14253;44.840;10.444;2023-05-23T12:28:38;10.57;;;5.15;;
26620;SDS011;14253;44.840;10.444;2023-05-23T12:31:16;8.90;;;4.72;;
26620;SDS011;14253;44.840;10.444;2023-05-23T12:33:43;6.38;;;4.50;;
26620;SDS011;14253;44.840;10.444;2023-05-23T12:36:12;6.72;;;4.40;;
26620;SDS011;14253;44.840;10.444;2023-05-23T12:38:39;6.43;;;4.30;;
26620;SDS011;14253;44.840;10.444;2023-05-23T12:43:39;6.63;;;5.35;;
26620;SDS011;14253;44.840;10.444;2023-05-23T12:46:05;10.13;;;4.72;;
26620;SDS011;14253;44.840;10.444;2023-05-23T12:48:32;9.85;;;4.80;;
26620;SDS011;14253;44.840;10.444;2023-05-23T12:50:58;7.95;;;4.50;;
26620;SDS011;14253;44.840;10.444;2023-05-23T12:53:25;6.70;;;4.40;;
26620;SDS011;14253;44.840;10.444;2023-05-23T12:55:52;9.85;;;4.20;;
26620;SDS011;14253;44.840;10.444;2023-05-23T12:58:17;6.28;;;4.22;;
26620;SDS011;14253;44.840;10.444;2023-05-23T13:00:44;5.53;;;4.20;;
26620;SDS011;14253;44.840;10.444;2023-05-23T13:03:10;7.65;;;4.18;;
26620;SDS011;14253;44.840;10.444;2023-05-23T13:05:37;6.75;;;4.68;;
26620;SDS011;14253;44.840;10.444;2023-05-23T13:08:03;7.10;;;4.15;;
26620;SDS011;14253;44.840;10.444;2023-05-23T13:10:29;8.55;;;4.35;;
26620;SDS011;14253;44.840;10.444;2023-05-23T13:12:55;7.68;;;4.20;;
26620;SDS011;14253;44.840;10.444;2023-05-23T13:15:21;9.60;;;4.00;;
26620;SDS011;14253;44.840;10.444;2023-05-23T13:17:47;5.63;;;4.35;;
26620;SDS011;14253;44.840;10.444;2023-05-23T13:20:13;6.32;;;4.15;;
26620;SDS011;14253;44.840;10.444;2023-05-23T13:22:39;7.97;;;3.90;;
26620;SDS011;14253;44.840;10.444;2023-05-23T13:25:06;7.05;;;4.65;;
26620;SDS011;14253;44.840;10.444;2023-05-23T13:27:33;5.05;;;4.10;;
26620;SDS011;14253;44.840;10.444;2023-05-23T13:29:59;7.95;;;3.97;;
26620;SDS011;14253;44.840;10.444;2023-05-23T13:32:25;10.20;;;3.92;;
26620;SDS011;14253;44.840;10.444;2023-05-23T13:34:51;6.35;;;3.53;;
26620;SDS011;14253;44.840;10.444;2023-05-23T13:37:17;8.50;;;4.00;;
26620;SDS011;14253;44.840;10.444;2023-05-23T13:39:43;6.57;;;3.30;;
26620;SDS011;14253;44.840;10.444;2023-05-23T13:42:09;4.43;;;3.53;;
26620;SDS011;14253;44.840;10.444;2023-05-23T13:44:36;5.50;;;4.03;;
26620;SDS011;14253;44.840;10.444;2023-05-23T13:47:11;4.93;;;3.72;;
26620;SDS011;14253;44.840;10.444;2023-05-23T13:49:39;7.35;;;3.90;;
26620;SDS011;14253;44.840;10.444;2023-05-23T13:52:05;6.88;;;3.80;;
26620;SDS011;14253;44.840;10.444;2023-05-23T13:54:32;6.03;;;4.40;;
26620;SDS011;14253;44.840;10.444;2023-05-23T13:56:58;6.90;;;4.18;;
26620;SDS011;14253;44.840;10.444;2023-05-23T13:59:25;9.38;;;4.68;;
26620;SDS011;14253;44.840;10.444;2023-05-23T14:01:52;6.35;;;3.95;;
26620;SDS011;14253;44.840;10.444;2023-05-23T14:04:18;6.00;;;4.18;;
26620;SDS011;14253;44.840;10.444;2023-05-23T14:06:44;9.23;;;4.43;;
26620;SDS011;14253;44.840;10.444;2023-05-23T14:09:10;5.53;;;4.00;;
26620;SDS011;14253;44.840;10.444;2023-05-23T14:11:36;6.55;;;4.40;;
26620;SDS011;14253;44.840;10.444;2023-05-23T14:14:03;6.85;;;4.70;;
26620;SDS011;14253;44.840;10.444;2023-05-23T14:16:29;10.70;;;5.05;;
26620;SDS011;14253;44.840;10.444;2023-05-23T14:18:55;7.60;;;4.85;;
26620;SDS011;14253;44.840;10.444;2023-05-23T14:21:21;7.88;;;3.80;;
26620;SDS011;14253;44.840;10.444;2023-05-23T14:23:47;5.85;;;4.55;;
26620;SDS011;14253;44.840;10.444;2023-05-23T14:26:13;8.02;;;4.82;;
26620;SDS011;14253;44.840;10.444;2023-05-23T14:28:40;7.93;;;4.50;;
26620;SDS011;14253;44.840;10.444;2023-05-23T14:31:06;9.63;;;4.55;;
26620;SDS011;14253;44.840;10.444;2023-05-23T14:33:32;8.60;;;4.30;;
26620;SDS011;14253;44.840;10.444;2023-05-23T14:35:59;8.20;;;4.45;;
26620;SDS011;14253;44.840;10.444;2023-05-23T14:38:25;5.95;;;4.13;;
26620;SDS011;14253;44.840;10.444;2023-05-23T14:40:51;4.95;;;3.63;;
26620;SDS011;14253;44.840;10.444;2023-05-23T14:43:19;6.40;;;4.03;;
26620;SDS011;14253;44.840;10.444;2023-05-23T14:45:45;7.18;;;4.22;;
26620;SDS011;14253;44.840;10.444;2023-05-23T14:48:11;5.47;;;4.38;;
26620;SDS011;14253;44.840;10.444;2023-05-23T14:50:37;7.40;;;3.95;;